Time;durP1;ratioP1;P1;durP2;ratioP2;P2;SDS_P1;SDS_P2;PMS_P1;PMS_P2;Temp;Humidity;BMP_temperature;BMP_pressure;BME280_temperature;BME280_humidity;BME280_pressure;Samples;Min_cycle;Max_cycle;Signal;HPM_P1;HPM_P2
2024/02/23 00:01:21;;;;;;;0.20;0.10;;;9.90;99.90;;;;;;5041925;28;20229;-61
2024/02/23 00:03:49;;;;;;;0.37;0.13;;;9.80;99.90;;;;;;5044591;28;20676;-61
2024/02/23 00:06:15;;;;;;;0.30;0.10;;;9.80;99.90;;;;;;5044375;28;20389;-61
2024/02/23 00:08:42;;;;;;;0.73;0.30;;;9.80;99.90;;;;;;5041410;28;20209;-63
2024/02/23 00:11:09;;;;;;;0.73;0.20;;;9.70;99.90;;;;;;5041543;28;20265;-61
2024/02/23 00:13:37;;;;;;;0.40;0.20;;;9.80;99.90;;;;;;5044621;28;20206;-61
2024/02/23 00:16:05;;;;;;;1.30;0.20;;;9.70;99.90;;;;;;5044968;28;20208;-61
2024/02/23 00:18:31;;;;;;;0.63;0.20;;;9.70;99.90;;;;;;5042123;28;20214;-61
2024/02/23 00:20:58;;;;;;;0.73;0.37;;;9.80;99.90;;;;;;5040874;28;20230;-61
2024/02/23 00:23:24;;;;;;;0.40;0.10;;;9.90;99.90;;;;;;5042287;28;20595;-61
2024/02/23 00:25:51;;;;;;;0.90;0.20;;;9.90;99.90;;;;;;5044739;28;20201;-62
2024/02/23 00:28:18;;;;;;;0.57;0.30;;;9.90;99.90;;;;;;5043296;28;20202;-62
2024/02/23 00:30:46;;;;;;;0.60;0.20;;;9.90;99.90;;;;;;5040451;28;20222;-61
2024/02/23 00:33:13;;;;;;;3.20;0.10;;;9.80;99.90;;;;;;5040533;28;20230;-61
2024/02/23 00:35:39;;;;;;;0.80;0.20;;;9.80;99.90;;;;;;5032462;28;20202;-62
2024/02/23 00:38:07;;;;;;;1.20;0.30;;;9.70;99.90;;;;;;5040507;28;20211;-61
2024/02/23 00:40:34;;;;;;;0.83;0.30;;;9.70;99.90;;;;;;5042931;28;20258;-61
2024/02/23 00:43:01;;;;;;;2.07;0.40;;;9.60;99.90;;;;;;5043980;28;20202;-61
2024/02/23 00:45:27;;;;;;;3.03;0.60;;;9.70;99.90;;;;;;5042300;28;20237;-61
2024/02/23 00:47:56;;;;;;;0.87;0.30;;;9.60;99.90;;;;;;5040395;28;20611;-61
2024/02/23 00:50:25;;;;;;;0.60;0.10;;;9.70;99.90;;;;;;5040983;28;20333;-61
2024/02/23 00:52:52;;;;;;;0.40;0.20;;;9.60;99.90;;;;;;5043790;28;20230;-61
2024/02/23 00:55:19;;;;;;;1.40;0.30;;;9.50;99.90;;;;;;5043245;28;20263;-61
2024/02/23 00:57:46;;;;;;;0.93;0.20;;;9.50;99.90;;;;;;5040289;28;20668;-63
2024/02/23 01:00:14;;;;;;;0.67;0.17;;;9.50;99.90;;;;;;5040034;28;20312;-62
2024/02/23 01:02:41;;;;;;;2.63;0.20;;;9.50;99.90;;;;;;5031902;28;20646;-62
2024/02/23 01:05:10;;;;;;;2.60;0.30;;;9.50;99.90;;;;;;5040230;28;20214;-62
2024/02/23 01:07:37;;;;;;;1.23;0.20;;;9.60;99.90;;;;;;5043108;28;20626;-62
2024/02/23 01:10:04;;;;;;;2.00;0.63;;;9.50;99.90;;;;;;5043907;28;20229;-62
2024/02/23 01:12:30;;;;;;;1.43;0.50;;;9.50;99.90;;;;;;5041310;28;20221;-62
2024/02/23 01:14:57;;;;;;;1.37;0.40;;;9.50;99.90;;;;;;5040427;28;20210;-62
2024/02/23 01:17:24;;;;;;;1.70;0.60;;;9.50;99.90;;;;;;5041472;28;20210;-62
2024/02/23 01:19:51;;;;;;;1.23;0.30;;;9.50;99.90;;;;;;5043616;28;20741;-62
2024/02/23 01:22:19;;;;;;;1.60;0.57;;;9.40;99.90;;;;;;5043151;28;20284;-62
2024/02/23 01:24:46;;;;;;;1.60;0.47;;;9.40;99.90;;;;;;5040398;28;20203;-62
2024/02/23 01:27:13;;;;;;;3.37;0.50;;;9.40;99.90;;;;;;5040052;28;20206;-62
2024/02/23 01:29:39;;;;;;;1.03;0.40;;;9.50;99.90;;;;;;5043080;28;20205;-62
2024/02/23 01:32:06;;;;;;;0.83;0.57;;;9.50;99.90;;;;;;5042936;28;20229;-61
2024/02/23 01:34:34;;;;;;;1.00;0.40;;;9.60;99.90;;;;;;5041094;28;20205;-61
2024/02/23 01:37:00;;;;;;;1.77;0.60;;;9.60;99.90;;;;;;5040017;28;20218;-62
2024/02/23 01:39:28;;;;;;;2.10;0.50;;;9.60;99.90;;;;;;5041282;28;20264;-62
2024/02/23 01:41:55;;;;;;;0.73;0.30;;;9.60;99.90;;;;;;5047117;28;20205;-61
2024/02/23 01:44:22;;;;;;;1.30;0.70;;;9.50;99.90;;;;;;5046423;28;20229;-61
2024/02/23 01:46:50;;;;;;;2.50;0.50;;;9.50;99.90;;;;;;5043612;28;20206;-61
2024/02/23 01:49:17;;;;;;;1.87;0.67;;;9.50;99.90;;;;;;5043867;28;20217;-62
2024/02/23 01:51:44;;;;;;;1.90;0.90;;;9.50;99.90;;;;;;5046756;28;20228;-61
2024/02/23 01:54:11;;;;;;;2.40;0.50;;;9.50;99.90;;;;;;5047172;28;20205;-61
2024/02/23 01:56:40;;;;;;;3.57;0.40;;;9.50;99.90;;;;;;5044002;28;20202;-62
2024/02/23 01:59:07;;;;;;;1.53;0.50;;;9.50;99.90;;;;;;5043518;28;20214;-62
2024/02/23 02:01:34;;;;;;;0.67;0.50;;;9.50;99.90;;;;;;5045309;28;20230;-62
2024/02/23 02:04:00;;;;;;;2.00;0.50;;;9.70;99.90;;;;;;5047017;28;20671;-62
2024/02/23 02:06:27;;;;;;;2.77;0.67;;;9.70;99.90;;;;;;5045583;28;20201;-62
2024/02/23 02:08:54;;;;;;;2.93;0.70;;;9.70;99.90;;;;;;5043551;28;20210;-62
2024/02/23 02:11:21;;;;;;;1.70;0.30;;;9.70;99.90;;;;;;5043586;28;20234;-62
2024/02/23 02:13:49;;;;;;;2.13;0.70;;;9.80;99.90;;;;;;5046509;28;20766;-62
2024/02/23 02:16:15;;;;;;;4.93;0.70;;;9.80;99.90;;;;;;5046959;28;20208;-62
2024/02/23 02:18:44;;;;;;;3.07;0.50;;;9.90;99.90;;;;;;5043385;28;20696;-62
2024/02/23 02:21:11;;;;;;;2.10;0.47;;;9.90;99.90;;;;;;5043114;28;20792;-62
2024/02/23 02:23:38;;;;;;;4.33;1.10;;;9.80;99.90;;;;;;5045832;28;20206;-62
2024/02/23 02:26:05;;;;;;;3.07;0.57;;;9.90;99.90;;;;;;5046585;28;20349;-62
2024/02/23 02:28:32;;;;;;;2.33;0.67;;;9.90;99.90;;;;;;5044318;28;20672;-62
2024/02/23 02:31:00;;;;;;;3.63;0.70;;;9.90;99.90;;;;;;5042646;28;20657;-62
2024/02/23 02:33:26;;;;;;;2.57;0.40;;;9.90;99.90;;;;;;5043810;28;20730;-61
2024/02/23 02:35:53;;;;;;;1.50;0.60;;;9.90;99.90;;;;;;5046421;28;20213;-61
2024/02/23 02:38:20;;;;;;;1.83;0.40;;;9.90;99.90;;;;;;5045941;28;20210;-61
2024/02/23 02:40:46;;;;;;;2.50;0.50;;;10.00;99.90;;;;;;5042470;28;20226;-61
2024/02/23 02:43:13;;;;;;;0.87;0.30;;;10.00;99.90;;;;;;5042581;28;20244;-62
2024/02/23 02:45:40;;;;;;;1.80;0.50;;;10.00;99.90;;;;;;5045728;28;20205;-61
2024/02/23 02:48:08;;;;;;;2.50;0.40;;;9.90;99.90;;;;;;5046368;28;20217;-61
2024/02/23 02:50:35;;;;;;;1.13;0.40;;;9.80;99.90;;;;;;5042811;28;20218;-61
2024/02/23 02:53:02;;;;;;;3.20;1.10;;;9.80;99.90;;;;;;5042635;28;20225;-61
2024/02/23 02:55:28;;;;;;;1.37;0.50;;;9.90;99.90;;;;;;5043823;28;20264;-61
2024/02/23 02:57:55;;;;;;;1.40;0.50;;;9.80;99.90;;;;;;5046244;28;20292;-61
2024/02/23 03:00:22;;;;;;;2.10;0.50;;;9.80;99.90;;;;;;5045143;28;20240;-61
2024/02/23 03:02:49;;;;;;;4.07;0.60;;;9.80;99.90;;;;;;5042460;28;20669;-61
2024/02/23 03:05:17;;;;;;;1.63;0.60;;;9.80;99.90;;;;;;5042405;28;20210;-61
2024/02/23 03:07:43;;;;;;;1.37;0.67;;;9.80;99.90;;;;;;5045643;28;20209;-61
2024/02/23 03:10:10;;;;;;;2.47;0.77;;;9.80;99.90;;;;;;5045528;28;20279;-62
2024/02/23 03:12:37;;;;;;;1.10;0.50;;;9.70;99.90;;;;;;5042677;28;20225;-62
2024/02/23 03:15:05;;;;;;;1.17;0.63;;;9.60;99.90;;;;;;5042543;28;20229;-62
2024/02/23 03:17:32;;;;;;;3.53;0.60;;;9.60;99.90;;;;;;5043906;28;20213;-62
2024/02/23 03:19:59;;;;;;;3.27;0.70;;;9.50;99.90;;;;;;5045523;28;20230;-62
2024/02/23 03:22:27;;;;;;;1.30;0.50;;;9.40;99.90;;;;;;5044278;28;20205;-62
2024/02/23 03:24:54;;;;;;;2.03;0.60;;;9.30;99.90;;;;;;5042237;28;20559;-62
2024/02/23 03:27:27;;;;;;;1.63;0.70;;;9.30;99.90;;;;;;5042421;28;20288;-62
2024/02/23 03:29:54;;;;;;;1.67;0.70;;;9.30;99.90;;;;;;5045371;28;20225;-62
2024/02/23 03:32:21;;;;;;;1.67;0.50;;;9.20;99.90;;;;;;5044644;28;20584;-62
2024/02/23 03:34:48;;;;;;;1.60;0.40;;;9.20;99.90;;;;;;5041772;28;20206;-62
2024/02/23 03:37:15;;;;;;;0.40;0.33;;;9.10;99.90;;;;;;5041932;28;20293;-63
2024/02/23 03:39:42;;;;;;;1.70;0.70;;;9.00;99.90;;;;;;5044692;28;20212;-62
2024/02/23 03:42:09;;;;;;;1.13;0.30;;;8.90;99.90;;;;;;5045072;28;20205;-61
2024/02/23 03:44:36;;;;;;;3.37;0.70;;;9.00;99.90;;;;;;5042837;28;20217;-61
2024/02/23 03:47:03;;;;;;;1.17;0.60;;;9.10;99.90;;;;;;5041638;28;20207;-61
2024/02/23 03:49:29;;;;;;;1.80;0.63;;;9.00;99.90;;;;;;5042853;28;20202;-61
2024/02/23 03:51:56;;;;;;;1.03;0.57;;;8.90;99.90;;;;;;5044594;28;20601;-62
2024/02/23 03:54:23;;;;;;;2.67;0.67;;;8.90;99.90;;;;;;5044212;28;20607;-61
2024/02/23 03:56:50;;;;;;;2.20;0.73;;;9.00;99.90;;;;;;5041634;28;20203;-62
2024/02/23 03:59:18;;;;;;;1.53;0.50;;;9.00;99.90;;;;;;5041586;28;20651;-62
2024/02/23 04:01:44;;;;;;;2.40;0.70;;;9.10;99.90;;;;;;5044320;28;20594;-61
2024/02/23 04:04:11;;;;;;;1.10;0.30;;;9.10;99.90;;;;;;5044161;28;20228;-61
2024/02/23 04:06:38;;;;;;;26.53;22.27;;;9.10;99.90;;;;;;5042068;28;20587;-61
2024/02/23 04:09:05;;;;;;;2.33;1.50;;;9.10;99.90;;;;;;5041314;28;20301;-62
2024/02/23 04:11:32;;;;;;;2.63;0.50;;;9.10;99.90;;;;;;5042269;28;20254;-61
2024/02/23 04:14:00;;;;;;;2.37;0.60;;;9.10;99.90;;;;;;5044313;28;20225;-61
2024/02/23 04:16:27;;;;;;;4.00;0.70;;;9.10;99.90;;;;;;5043547;28;20206;-62
2024/02/23 04:18:56;;;;;;;0.77;0.30;;;9.00;99.90;;;;;;5041232;28;20237;-61
2024/02/23 04:21:22;;;;;;;1.83;0.60;;;9.00;99.90;;;;;;5041016;28;20682;-61
2024/02/23 04:23:49;;;;;;;2.37;0.60;;;9.00;99.90;;;;;;5044339;28;20197;-61
2024/02/23 04:26:16;;;;;;;2.27;0.80;;;8.90;99.90;;;;;;5044494;28;20206;-60
2024/02/23 04:28:43;;;;;;;3.27;0.93;;;8.90;99.90;;;;;;5041313;28;20202;-61
2024/02/23 04:31:11;;;;;;;1.90;0.43;;;8.80;99.90;;;;;;5040788;28;20238;-60
2024/02/23 04:33:39;;;;;;;2.93;0.63;;;8.80;99.90;;;;;;5043412;28;20297;-61
2024/02/23 04:36:06;;;;;;;2.03;0.40;;;8.80;99.90;;;;;;5044233;28;20205;-61
2024/02/23 04:38:34;;;;;;;4.63;2.03;;;8.80;99.90;;;;;;5042491;28;20228;-61
2024/02/23 04:41:03;;;;;;;3.60;1.17;;;8.80;99.90;;;;;;5040591;28;20226;-62
2024/02/23 04:43:30;;;;;;;2.07;0.73;;;8.80;99.90;;;;;;5041646;28;20209;-61
2024/02/23 04:45:57;;;;;;;1.97;0.67;;;8.70;99.90;;;;;;5043855;28;20255;-61
2024/02/23 04:48:25;;;;;;;1.87;0.47;;;8.60;99.90;;;;;;5043837;28;20675;-61
2024/02/23 04:50:52;;;;;;;3.03;0.77;;;8.60;99.90;;;;;;5043866;28;20256;-61
2024/02/23 04:53:19;;;;;;;5.67;3.23;;;8.60;99.90;;;;;;5043892;28;20221;-61
2024/02/23 04:55:45;;;;;;;2.83;0.60;;;8.60;99.90;;;;;;5040953;28;20229;-60
2024/02/23 04:58:12;;;;;;;1.93;0.63;;;8.50;99.90;;;;;;5040374;28;20214;-60
2024/02/23 05:00:39;;;;;;;2.73;1.63;;;8.50;99.90;;;;;;5041966;28;20673;-61
2024/02/23 05:03:07;;;;;;;3.67;0.83;;;8.50;99.90;;;;;;5043758;28;20206;-61
2024/02/23 05:05:36;;;;;;;2.47;0.60;;;8.50;99.90;;;;;;5042013;28;20683;-61
2024/02/23 05:08:03;;;;;;;1.67;0.70;;;8.50;99.90;;;;;;5039977;28;20620;-60
2024/02/23 05:10:30;;;;;;;1.60;0.43;;;8.40;99.90;;;;;;5040545;28;20241;-61
2024/02/23 05:12:57;;;;;;;1.63;0.70;;;8.40;99.90;;;;;;5043622;28;20224;-61
2024/02/23 05:15:23;;;;;;;1.70;0.50;;;8.40;99.90;;;;;;5043446;28;20205;-61
2024/02/23 05:17:50;;;;;;;1.10;0.60;;;8.40;99.90;;;;;;5040001;28;20691;-60
2024/02/23 05:20:17;;;;;;;1.60;0.70;;;8.50;99.90;;;;;;5040010;28;20230;-61
2024/02/23 05:22:45;;;;;;;3.37;0.70;;;8.40;99.90;;;;;;5042611;28;20478;-60
2024/02/23 05:25:11;;;;;;;2.07;0.63;;;8.40;99.90;;;;;;5043386;28;20283;-61
2024/02/23 05:27:37;;;;;;;3.20;0.90;;;8.30;99.90;;;;;;5040969;28;20210;-61
2024/02/23 05:30:05;;;;;;;4.07;1.00;;;8.20;99.90;;;;;;5040019;28;20576;-61
2024/02/23 05:32:31;;;;;;;3.63;1.00;;;8.20;99.90;;;;;;5040595;28;20210;-61
2024/02/23 05:34:58;;;;;;;3.10;0.90;;;8.10;99.90;;;;;;5043208;28;20225;-62
2024/02/23 05:37:26;;;;;;;7.13;1.50;;;8.00;99.90;;;;;;5043094;28;20220;-61
2024/02/23 05:39:55;;;;;;;2.27;0.70;;;8.10;99.90;;;;;;5039871;28;20240;-61
2024/02/23 05:42:21;;;;;;;5.30;0.93;;;8.10;99.90;;;;;;5039532;28;20206;-61
2024/02/23 05:44:48;;;;;;;2.03;0.80;;;8.10;99.90;;;;;;5043160;28;20205;-61
2024/02/23 05:47:15;;;;;;;2.43;1.10;;;8.10;99.90;;;;;;5043019;28;20283;-61
2024/02/23 05:49:42;;;;;;;3.00;1.27;;;8.10;99.90;;;;;;5040658;28;20676;-60
2024/02/23 05:52:09;;;;;;;3.43;1.10;;;8.10;99.90;;;;;;5039533;28;20221;-61
2024/02/23 05:54:36;;;;;;;3.50;1.43;;;8.10;99.90;;;;;;5040973;28;20222;-62
2024/02/23 05:57:04;;;;;;;4.60;2.67;;;8.10;99.90;;;;;;5043249;28;20212;-61
2024/02/23 05:59:31;;;;;;;4.73;2.50;;;8.10;99.90;;;;;;5042051;28;20202;-61
2024/02/23 06:01:58;;;;;;;6.43;2.73;;;8.10;99.90;;;;;;5039580;28;20211;-61
2024/02/23 06:04:25;;;;;;;4.27;1.93;;;8.10;99.90;;;;;;5039383;28;20202;-61
2024/02/23 06:06:52;;;;;;;3.37;1.10;;;8.00;99.90;;;;;;5042850;28;20202;-61
2024/02/23 06:09:19;;;;;;;1.50;0.93;;;8.00;99.90;;;;;;5042759;28;20683;-61
2024/02/23 06:11:46;;;;;;;2.23;1.20;;;7.90;99.90;;;;;;5039695;28;20309;-61
2024/02/23 06:14:14;;;;;;;2.73;1.00;;;7.90;99.90;;;;;;5039276;28;20226;-61
2024/02/23 06:16:41;;;;;;;2.20;1.10;;;7.90;99.90;;;;;;5041671;28;20206;-61
2024/02/23 06:19:06;;;;;;;3.67;1.70;;;7.80;99.90;;;;;;5042901;28;20240;-60
2024/02/23 06:21:33;;;;;;;1.67;0.93;;;7.80;99.90;;;;;;5041236;28;20245;-61
2024/02/23 06:24:00;;;;;;;2.03;0.90;;;7.80;99.90;;;;;;5039300;28;20691;-62
2024/02/23 06:26:26;;;;;;;2.23;1.27;;;7.70;99.90;;;;;;5040863;28;20210;-61
2024/02/23 06:28:53;;;;;;;8.43;3.63;;;7.70;99.90;;;;;;5046557;28;20212;-61
2024/02/23 06:31:21;;;;;;;5.57;2.00;;;7.70;99.90;;;;;;5046077;28;20229;-61
2024/02/23 06:33:49;;;;;;;4.03;2.30;;;7.70;99.90;;;;;;5043077;28;20251;-61
2024/02/23 06:36:15;;;;;;;3.20;1.80;;;7.60;99.90;;;;;;5042839;28;20206;-61
2024/02/23 06:38:42;;;;;;;3.13;1.30;;;7.50;99.90;;;;;;5045210;28;20214;-62
2024/02/23 06:41:10;;;;;;;1.90;1.00;;;7.50;99.90;;;;;;5045792;28;20703;-62
2024/02/23 06:43:37;;;;;;;5.30;1.07;;;7.50;99.90;;;;;;5044682;28;20202;-61
2024/02/23 06:46:06;;;;;;;4.43;1.40;;;7.60;99.90;;;;;;5042806;28;20206;-61
2024/02/23 06:48:35;;;;;;;6.80;2.20;;;7.60;99.90;;;;;;5043440;28;20241;-60
2024/02/23 06:51:02;;;;;;;2.23;1.00;;;7.70;99.90;;;;;;5045521;28;20348;-61
2024/02/23 06:53:28;;;;;;;2.23;0.93;;;7.70;99.90;;;;;;5045428;28;20244;-62
2024/02/23 06:55:55;;;;;;;3.27;1.60;;;7.80;99.90;;;;;;5042725;28;20248;-61
2024/02/23 06:58:22;;;;;;;5.07;1.10;;;7.80;99.90;;;;;;5042442;28;20244;-62
2024/02/23 07:00:48;;;;;;;5.73;2.30;;;7.90;99.90;;;;;;5045274;28;20283;-61
2024/02/23 07:03:16;;;;;;;2.53;1.10;;;8.00;99.90;;;;;;5045701;28;20206;-61
2024/02/23 07:05:45;;;;;;;5.20;0.97;;;8.00;99.90;;;;;;5043470;28;20205;-62
2024/02/23 07:08:11;;;;;;;2.83;1.07;;;8.10;99.90;;;;;;5042384;28;20210;-61
2024/02/23 07:10:38;;;;;;;4.03;1.10;;;8.10;99.90;;;;;;5043491;28;20601;-61
2024/02/23 07:13:05;;;;;;;3.37;0.80;;;8.20;99.90;;;;;;5045494;28;20213;-61
2024/02/23 07:15:32;;;;;;;3.90;1.30;;;8.20;99.90;;;;;;5044765;28;20232;-61
2024/02/23 07:17:59;;;;;;;2.73;1.00;;;8.20;99.90;;;;;;5041912;28;20605;-59
2024/02/23 07:20:26;;;;;;;3.27;0.97;;;8.30;99.90;;;;;;5041856;28;20237;-60
2024/02/23 07:22:54;;;;;;;14.50;12.07;;;8.30;99.90;;;;;;5033856;28;20638;-61
2024/02/23 07:25:21;;;;;;;6.40;4.30;;;8.30;99.90;;;;;;5041871;28;20248;-59
2024/02/23 07:27:49;;;;;;;4.13;0.90;;;8.40;99.90;;;;;;5044460;28;20201;-59
2024/02/23 07:30:17;;;;;;;2.17;1.17;;;8.40;99.90;;;;;;5045016;28;20310;-59
2024/02/23 07:32:44;;;;;;;1.27;1.00;;;8.40;99.90;;;;;;5042285;28;20210;-60
2024/02/23 07:35:10;;;;;;;3.23;1.07;;;8.50;99.90;;;;;;5041456;28;20716;-59
2024/02/23 07:37:37;;;;;;;2.10;0.80;;;8.60;99.90;;;;;;5041840;28;20221;-60
2024/02/23 07:40:07;;;;;;;4.60;1.37;;;8.60;99.90;;;;;;5044842;28;20283;-60
2024/02/23 07:42:35;;;;;;;3.67;0.90;;;8.80;99.90;;;;;;5043733;28;20213;-60
2024/02/23 07:45:04;;;;;;;3.60;1.27;;;8.80;99.90;;;;;;5041443;28;20205;-59
2024/02/23 07:47:30;;;;;;;5.87;1.30;;;8.90;99.90;;;;;;5041891;28;20210;-60
2024/02/23 07:49:57;;;;;;;1.67;0.80;;;8.90;99.90;;;;;;5044538;28;20611;-60
2024/02/23 07:52:24;;;;;;;3.57;1.40;;;9.00;99.90;;;;;;5044516;28;20222;-60
2024/02/23 07:54:51;;;;;;;5.93;1.90;;;9.10;99.90;;;;;;5041864;28;20342;-60
2024/02/23 07:57:19;;;;;;;7.07;2.00;;;9.20;99.90;;;;;;5041370;28;20214;-59
2024/02/23 07:59:46;;;;;;;1.90;1.20;;;9.30;99.90;;;;;;5042966;28;20245;-60
2024/02/23 08:02:13;;;;;;;1.53;0.70;;;9.40;99.90;;;;;;5044599;28;20209;-60
2024/02/23 08:04:40;;;;;;;2.20;1.07;;;9.40;99.90;;;;;;5043050;28;20260;-59
2024/02/23 08:07:06;;;;;;;8.10;1.23;;;9.50;99.90;;;;;;5041320;28;20214;-59
2024/02/23 08:09:33;;;;;;;4.03;1.10;;;9.40;99.90;;;;;;5041515;28;20593;-59
2024/02/23 08:12:00;;;;;;;2.93;0.80;;;9.40;99.90;;;;;;5044288;28;20201;-59
2024/02/23 08:14:28;;;;;;;3.20;0.80;;;9.30;99.90;;;;;;5044196;28;20229;-60
2024/02/23 08:16:54;;;;;;;2.47;0.80;;;9.30;99.90;;;;;;5033106;28;20203;-60
2024/02/23 08:19:21;;;;;;;4.47;1.00;;;9.30;99.90;;;;;;5040841;28;20214;-60
2024/02/23 08:21:48;;;;;;;11.67;1.60;;;9.30;99.90;;;;;;5043084;28;20582;-60
2024/02/23 08:24:14;;;;;;;2.50;0.83;;;9.40;99.90;;;;;;5044009;28;20733;-60
2024/02/23 08:26:42;;;;;;;5.27;1.07;;;9.40;99.90;;;;;;5042136;28;20214;-60
2024/02/23 08:29:09;;;;;;;1.63;0.80;;;9.50;99.90;;;;;;5040722;28;20755;-60
2024/02/23 08:31:37;;;;;;;5.10;1.10;;;9.50;99.90;;;;;;5041225;28;20699;-60
2024/02/23 08:34:04;;;;;;;2.23;1.10;;;9.50;99.90;;;;;;5043985;28;20216;-60
2024/02/23 08:36:30;;;;;;;2.80;1.30;;;9.60;99.90;;;;;;5043596;28;20259;-60
2024/02/23 08:38:57;;;;;;;5.87;1.20;;;9.70;99.90;;;;;;5040466;28;20214;-60
2024/02/23 08:41:24;;;;;;;7.97;1.30;;;9.80;99.90;;;;;;5039937;28;20317;-60
2024/02/23 08:43:50;;;;;;;2.20;1.10;;;10.00;99.90;;;;;;5043224;28;20197;-60
2024/02/23 08:46:18;;;;;;;5.77;1.37;;;10.10;99.90;;;;;;5043680;28;20297;-59
2024/02/23 08:48:47;;;;;;;4.37;1.30;;;10.20;99.90;;;;;;5040980;28;20648;-60
2024/02/23 08:51:14;;;;;;;1.47;1.00;;;10.30;99.90;;;;;;5040015;28;20607;-60
2024/02/23 08:53:41;;;;;;;3.03;1.10;;;10.30;99.90;;;;;;5041736;28;20202;-60
2024/02/23 08:56:09;;;;;;;5.70;1.00;;;10.30;99.90;;;;;;5043640;28;20221;-60
2024/02/23 08:58:36;;;;;;;2.77;1.00;;;10.30;99.90;;;;;;5042671;28;20682;-60
2024/02/23 09:01:04;;;;;;;7.23;1.57;;;10.40;99.90;;;;;;5039703;28;20731;-60
2024/02/23 09:03:31;;;;;;;4.73;0.93;;;10.40;99.90;;;;;;5040145;28;20213;-59
2024/02/23 09:06:00;;;;;;;5.60;1.00;;;10.40;99.90;;;;;;5043958;28;20208;-59
2024/02/23 09:08:27;;;;;;;2.83;0.93;;;10.40;99.90;;;;;;5043744;28;20205;-59
2024/02/23 09:10:53;;;;;;;1.50;0.60;;;10.50;99.90;;;;;;5040178;28;20604;-59
2024/02/23 09:13:20;;;;;;;2.77;0.90;;;10.60;99.90;;;;;;5040607;28;20777;-59
2024/02/23 09:15:46;;;;;;;2.70;0.90;;;10.70;99.90;;;;;;5042939;28;20616;-59
2024/02/23 09:18:14;;;;;;;2.37;1.07;;;10.80;99.90;;;;;;5043247;28;20275;-59
2024/02/23 09:20:40;;;;;;;3.07;0.70;;;10.80;99.90;;;;;;5041582;28;20225;-59
2024/02/23 09:23:09;;;;;;;3.43;0.80;;;10.80;99.90;;;;;;5039996;28;20209;-59
2024/02/23 09:25:35;;;;;;;3.20;1.00;;;10.90;99.90;;;;;;5040746;28;20203;-61
2024/02/23 09:28:02;;;;;;;6.80;1.63;;;10.90;99.90;;;;;;5043476;28;20209;-61
2024/02/23 09:30:29;;;;;;;3.50;1.13;;;10.90;99.90;;;;;;5043053;28;20229;-61
2024/02/23 09:32:56;;;;;;;2.13;0.80;;;11.00;99.90;;;;;;5038155;28;20680;-63
2024/02/23 09:35:22;;;;;;;3.43;0.83;;;11.10;99.90;;;;;;5038600;28;20222;-59
2024/02/23 09:37:49;;;;;;;2.90;0.80;;;11.20;99.90;;;;;;5040339;28;20267;-60
2024/02/23 09:40:17;;;;;;;4.90;1.03;;;11.40;99.90;;;;;;5040147;28;20250;-59
2024/02/23 09:42:49;;;;;;;2.83;0.80;;;11.40;99.90;;;;;;5041449;28;20229;-58
2024/02/23 09:45:17;;;;;;;3.37;0.70;;;11.40;99.90;;;;;;5042980;28;20210;-58
2024/02/23 09:47:44;;;;;;;3.97;1.20;;;11.50;99.90;;;;;;5041341;28;20209;-57
2024/02/23 09:50:12;;;;;;;5.63;1.10;;;11.60;99.90;;;;;;5039452;28;20313;-58
2024/02/23 09:52:39;;;;;;;4.80;1.07;;;11.60;99.90;;;;;;5040204;28;20672;-58
2024/02/23 09:55:06;;;;;;;2.53;1.00;;;11.50;99.90;;;;;;5042956;28;20726;-57
2024/02/23 09:57:35;;;;;;;4.37;1.83;;;11.50;99.90;;;;;;5042754;28;20201;-57
2024/02/23 10:00:06;;;;;;;6.53;1.17;;;11.50;99.90;;;;;;5039412;28;20230;-58
2024/02/23 10:02:33;;;;;;;2.70;0.80;;;11.50;99.90;;;;;;5042285;28;20293;-57
2024/02/23 10:05:02;;;;;;;1.83;0.90;;;11.60;99.90;;;;;;5046551;28;20271;-58
2024/02/23 10:07:29;;;;;;;10.47;4.00;;;11.70;99.90;;;;;;5046700;28;20209;-58
2024/02/23 10:09:55;;;;;;;5.40;0.90;;;11.80;99.90;;;;;;5043196;28;20236;-58
2024/02/23 10:12:22;;;;;;;4.53;1.00;;;11.70;99.90;;;;;;5042986;28;20206;-58
2024/02/23 10:14:50;;;;;;;2.47;0.77;;;11.60;99.90;;;;;;5045271;28;20218;-58
2024/02/23 10:17:17;;;;;;;1.93;0.73;;;11.60;99.90;;;;;;5046112;28;20208;-58
2024/02/23 10:19:45;;;;;;;3.70;0.93;;;11.60;99.90;;;;;;5044843;28;20212;-62
2024/02/23 10:22:12;;;;;;;5.43;1.20;;;11.60;99.90;;;;;;5042798;28;20202;-59
2024/02/23 10:24:39;;;;;;;3.13;1.00;;;11.80;99.90;;;;;;5043905;28;20206;-59
2024/02/23 10:27:06;;;;;;;4.23;1.10;;;11.90;99.90;;;;;;5046306;28;20268;-59
2024/02/23 10:29:32;;;;;;;3.40;0.90;;;12.00;99.90;;;;;;5046146;28;20283;-59
2024/02/23 10:32:03;;;;;;;3.33;0.70;;;12.00;99.90;;;;;;5042630;28;20209;-59
2024/02/23 10:34:31;;;;;;;3.40;0.73;;;12.10;99.90;;;;;;5042912;28;20693;-60
2024/02/23 10:36:58;;;;;;;4.27;1.17;;;12.20;99.90;;;;;;5042653;28;20672;-59
2024/02/23 10:39:29;;;;;;;3.83;1.07;;;12.20;99.90;;;;;;5042620;28;20217;-60
2024/02/23 10:42:00;;;;;;;2.47;1.00;;;12.20;99.90;;;;;;5045449;28;20221;-61
2024/02/23 10:44:28;;;;;;;3.93;1.00;;;12.30;99.90;;;;;;5046406;28;20685;-60
2024/02/23 10:46:55;;;;;;;2.70;0.90;;;12.40;99.90;;;;;;5042726;28;20621;-60
2024/02/23 10:49:26;;;;;;;3.17;0.93;;;12.60;99.90;;;;;;5042559;28;20206;-60
2024/02/23 10:51:53;;;;;;;4.00;0.80;;;12.70;99.90;;;;;;5044830;28;20206;-60
2024/02/23 10:54:21;;;;;;;1.90;1.00;;;12.80;99.90;;;;;;5045783;28;20320;-60
2024/02/23 10:56:49;;;;;;;4.83;0.93;;;12.80;99.90;;;;;;5043691;28;20218;-60
2024/02/23 10:59:18;;;;;;;3.20;1.07;;;12.90;99.90;;;;;;5042704;28;20206;-60
2024/02/23 11:01:46;;;;;;;2.53;1.20;;;13.10;99.90;;;;;;5043348;28;20240;-60
2024/02/23 11:04:13;;;;;;;4.07;1.07;;;13.20;99.90;;;;;;5045768;28;20206;-60
2024/02/23 11:06:42;;;;;;;4.20;1.13;;;13.20;99.90;;;;;;5044644;28;20205;-60
2024/02/23 11:09:13;;;;;;;2.23;1.03;;;13.30;99.90;;;;;;5042428;28;20622;-60
2024/02/23 11:11:39;;;;;;;3.83;1.13;;;13.20;99.90;;;;;;5042075;28;20727;-60
2024/02/23 11:14:09;;;;;;;2.73;1.20;;;13.20;99.90;;;;;;5045668;28;20518;-60
2024/02/23 11:16:39;;;;;;;5.20;2.67;;;13.30;99.90;;;;;;5044802;28;20312;-60
2024/02/23 11:19:08;;;;;;;3.77;1.13;;;13.30;99.90;;;;;;5042074;28;20210;-60
2024/02/23 11:21:35;;;;;;;2.07;1.17;;;13.40;99.90;;;;;;5041498;28;20321;-60
2024/02/23 11:24:05;;;;;;;3.87;1.03;;;13.50;99.90;;;;;;5045069;28;20653;-60
2024/02/23 11:26:33;;;;;;;1.70;0.77;;;13.60;99.90;;;;;;5045265;28;20202;-60
2024/02/23 11:29:00;;;;;;;1.60;0.73;;;13.70;99.90;;;;;;5045257;28;20209;-60
2024/02/23 11:31:31;;;;;;;2.40;1.10;;;13.60;99.90;;;;;;5044862;28;20260;-60
2024/02/23 11:33:58;;;;;;;1.67;0.97;;;13.70;99.90;;;;;;5041814;28;20297;-60
2024/02/23 11:36:25;;;;;;;5.67;1.30;;;13.70;99.90;;;;;;5041497;28;20218;-60
2024/02/23 11:38:54;;;;;;;9.33;1.43;;;13.60;99.90;;;;;;5043951;28;20206;-61
2024/02/23 11:41:24;;;;;;;1.60;0.83;;;13.50;99.90;;;;;;5044573;28;20313;-61
2024/02/23 11:43:51;;;;;;;4.20;1.33;;;13.20;99.90;;;;;;5042429;28;20634;-61
2024/02/23 11:46:19;;;;;;;5.07;2.47;;;13.60;99.90;;;;;;5041491;28;20559;-62
2024/02/23 11:48:46;;;;;;;4.53;1.10;;;13.50;99.90;;;;;;5042780;28;20202;-61
2024/02/23 11:51:13;;;;;;;1.93;0.90;;;13.60;99.90;;;;;;5044216;28;20218;-60
2024/02/23 11:53:40;;;;;;;3.43;1.03;;;13.60;99.90;;;;;;5043910;28;20627;-60
2024/02/23 11:56:07;;;;;;;2.47;1.00;;;13.80;99.70;;;;;;5041042;28;20215;-60
2024/02/23 11:58:35;;;;;;;3.30;1.63;;;13.80;99.30;;;;;;5040875;28;20213;-61
2024/02/23 12:01:03;;;;;;;3.20;0.93;;;13.90;99.10;;;;;;5032878;28;20280;-60
2024/02/23 12:03:30;;;;;;;4.17;1.23;;;13.90;98.90;;;;;;5041003;28;20226;-60
2024/02/23 12:05:58;;;;;;;3.37;1.17;;;13.80;98.90;;;;;;5044036;28;20281;-60
2024/02/23 12:08:25;;;;;;;2.70;1.00;;;13.80;98.60;;;;;;5044608;28;20255;-59
2024/02/23 12:10:53;;;;;;;1.77;0.83;;;13.80;98.60;;;;;;5041977;28;20283;-60
2024/02/23 12:13:20;;;;;;;7.33;1.40;;;13.90;98.40;;;;;;5041059;28;20301;-60
2024/02/23 12:15:48;;;;;;;4.43;0.93;;;13.80;98.60;;;;;;5042523;28;20226;-60
2024/02/23 12:18:15;;;;;;;4.60;1.00;;;13.80;98.70;;;;;;5044301;28;20205;-60
2024/02/23 12:20:42;;;;;;;3.67;1.13;;;13.80;98.10;;;;;;5042650;28;20654;-60
2024/02/23 12:23:10;;;;;;;3.63;1.00;;;13.70;98.20;;;;;;5040521;28;20618;-60
2024/02/23 12:25:36;;;;;;;2.93;1.03;;;13.70;98.20;;;;;;5041023;28;20201;-61
2024/02/23 12:28:03;;;;;;;1.80;0.70;;;13.80;98.20;;;;;;5044209;28;20690;-60
2024/02/23 12:30:32;;;;;;;5.47;1.47;;;13.80;98.60;;;;;;5043911;28;20611;-60
2024/02/23 12:33:07;;;;;;;2.27;0.90;;;13.90;98.60;;;;;;5040985;28;20735;-61
2024/02/23 12:35:34;;;;;;;3.10;1.07;;;13.80;98.10;;;;;;5041027;28;20235;-61
2024/02/23 12:38:01;;;;;;;5.00;0.90;;;13.60;97.80;;;;;;5032455;28;20672;-61
2024/02/23 12:40:29;;;;;;;2.23;1.20;;;13.40;98.10;;;;;;5040348;28;20222;-61
2024/02/23 12:42:55;;;;;;;1.83;0.90;;;13.40;98.60;;;;;;5043330;28;20210;-60
2024/02/23 12:45:22;;;;;;;2.10;1.00;;;13.40;98.50;;;;;;5043904;28;20622;-60
2024/02/23 12:47:49;;;;;;;3.03;1.00;;;13.50;98.40;;;;;;5031999;28;20563;-61
2024/02/23 12:50:17;;;;;;;2.67;0.90;;;13.60;98.50;;;;;;5040421;28;20261;-60
2024/02/23 12:52:44;;;;;;;3.30;1.27;;;13.50;98.20;;;;;;5040768;28;20206;-60